LFOT/TUF METAR and TAF weather

Enter ICAO airport designator
Station Type Date Time Source
LFOT METAR 2019/12/10 03:00 UTC NOAA

LFOT 100300Z AUTO 26003KT 9000 NSC 01/01 Q1029 TEMPO 0600 FG VV///


Station Type Date Time Source
LFOT Decoded METAR 2019/12/10 03:00 UTC NOAA

Tours, France (LFOT) 47-27N 000-43E 112M
Dec 09, 2019 - 10:00 PM EST / 2019.12.10 0300 UTC
Wind: from the W (260 degrees) at 3 MPH (3 KT):0
Visibility: 5 mile(s):0
Temperature: 33 F (1 C)
Dew Point: 33 F (1 C)
Relative Humidity: 100%
Pressure (altimeter): 30.39 in. Hg (1029 hPa)
ob: LFOT 100300Z AUTO 26003KT 9000 NSC 01/01 Q1029 TEMPO 0600 FG VV///
cycle: 3

Station Type Date Time Source
LFOT TAF 2019/12/09 18:21 UTC NOAA

TAF LFOT 091700Z 0918/1018 31010KT 9999 SCT040
BECMG 1001/1003 23004KT
TEMPO 1003/1011 3000 BR BKN003 PROB40
TEMPO 1005/1008 0800 FG BKN001

Example: see airport list